Time;durP1;ratioP1;P1;durP2;ratioP2;P2;SDS_P1;SDS_P2;PMS_P1;PMS_P2;Temp;Humidity;BMP_temperature;BMP_pressure;BME280_temperature;BME280_humidity;BME280_pressure;Samples;Min_cycle;Max_cycle;Signal;HPM_P1;HPM_P2
2021/05/09 00:00:43;;;;;;;1.90;1.20;;;14.40;97.20;;;;;;5064106;28;20198;-74
2021/05/09 00:03:09;;;;;;;1.63;1.33;;;14.30;97.10;;;;;;5072066;28;20209;-73
2021/05/09 00:05:36;;;;;;;1.77;1.13;;;14.40;97.20;;;;;;5070882;28;20547;-74
2021/05/09 00:08:02;;;;;;;1.20;1.08;;;14.30;97.20;;;;;;5067752;28;20209;-73
2021/05/09 00:10:29;;;;;;;1.20;1.10;;;14.30;97.20;;;;;;5070402;28;20202;-74
2021/05/09 00:12:55;;;;;;;1.50;1.10;;;14.30;97.20;;;;;;5070849;28;20202;-74
2021/05/09 00:15:23;;;;;;;1.55;1.20;;;14.30;97.30;;;;;;5068847;28;20546;-74
2021/05/09 00:17:50;;;;;;;1.20;1.10;;;14.30;97.20;;;;;;5070490;28;20198;-74
2021/05/09 00:20:17;;;;;;;1.48;1.38;;;14.30;97.30;;;;;;5068321;28;20230;-73
2021/05/09 00:22:43;;;;;;;1.40;1.27;;;14.30;97.30;;;;;;5070532;28;20539;-73
2021/05/09 00:25:10;;;;;;;1.15;1.00;;;14.30;97.30;;;;;;5069975;28;20213;-73
2021/05/09 00:27:39;;;;;;;1.40;1.30;;;14.30;97.30;;;;;;5070614;28;20210;-74
2021/05/09 00:30:06;;;;;;;1.30;1.10;;;14.30;97.40;;;;;;5069868;28;20500;-73
2021/05/09 00:32:32;;;;;;;1.40;1.30;;;14.30;97.40;;;;;;5071126;28;20213;-73
2021/05/09 00:34:59;;;;;;;1.30;1.15;;;14.30;97.40;;;;;;5069257;28;20202;-72
2021/05/09 00:37:25;;;;;;;1.80;1.17;;;14.20;97.40;;;;;;5071352;28;20202;-73
2021/05/09 00:39:51;;;;;;;1.85;1.38;;;14.20;97.40;;;;;;5071041;28;20197;-73
2021/05/09 00:42:18;;;;;;;1.52;1.40;;;14.20;97.50;;;;;;5071188;28;20253;-73
2021/05/09 00:44:45;;;;;;;1.20;1.10;;;14.20;97.50;;;;;;5066810;28;20301;-73
2021/05/09 00:47:13;;;;;;;1.48;1.17;;;14.20;97.50;;;;;;5069629;28;20228;-73
2021/05/09 00:49:41;;;;;;;1.40;1.00;;;14.20;97.60;;;;;;5070504;28;20228;-73
2021/05/09 00:52:08;;;;;;;1.40;1.02;;;14.20;97.60;;;;;;5070787;28;20214;-72
2021/05/09 00:54:36;;;;;;;1.15;0.82;;;14.20;97.70;;;;;;5069821;28;20202;-73
2021/05/09 00:57:03;;;;;;;1.65;1.17;;;14.10;97.70;;;;;;5070709;28;20197;-73
2021/05/09 00:59:33;;;;;;;1.20;1.10;;;14.10;97.80;;;;;;5070900;28;20218;-73
2021/05/09 01:02:00;;;;;;;2.00;1.20;;;14.10;97.80;;;;;;5063052;28;20598;-73
2021/05/09 01:04:27;;;;;;;1.35;1.10;;;14.10;97.90;;;;;;5055198;28;20186;-73
2021/05/09 01:06:53;;;;;;;1.65;1.35;;;14.10;97.90;;;;;;5070496;28;20214;-73
2021/05/09 01:09:20;;;;;;;1.90;1.40;;;14.10;98.00;;;;;;5070450;28;20202;-74
2021/05/09 01:11:46;;;;;;;1.70;1.10;;;14.10;98.00;;;;;;5062296;28;20206;-73
2021/05/09 01:14:12;;;;;;;1.30;1.20;;;14.10;98.10;;;;;;5070215;28;20891;-74
2021/05/09 01:16:38;;;;;;;1.20;1.10;;;14.10;98.10;;;;;;5070340;28;20205;-73
2021/05/09 01:19:08;;;;;;;1.90;1.40;;;14.10;98.30;;;;;;5068506;28;20229;-73
2021/05/09 01:21:35;;;;;;;1.52;1.42;;;14.00;98.20;;;;;;5065203;28;20301;-73
2021/05/09 01:24:01;;;;;;;2.03;1.00;;;14.00;98.30;;;;;;5064384;28;20657;-73
2021/05/09 01:26:28;;;;;;;1.50;1.08;;;14.00;98.30;;;;;;5070445;28;20229;-73
2021/05/09 01:28:54;;;;;;;1.90;1.52;;;14.00;98.40;;;;;;5068169;28;20252;-73
2021/05/09 01:31:20;;;;;;;1.92;1.40;;;14.00;98.50;;;;;;5069630;28;20190;-73
2021/05/09 01:33:46;;;;;;;3.15;1.55;;;14.00;98.50;;;;;;5069077;28;20194;-73
2021/05/09 01:36:12;;;;;;;1.33;1.23;;;14.00;98.60;;;;;;5070169;28;20878;-73
2021/05/09 01:38:39;;;;;;;2.10;1.10;;;14.00;98.70;;;;;;5069004;28;20198;-72
2021/05/09 01:41:06;;;;;;;3.47;1.83;;;13.90;98.70;;;;;;5069408;28;20202;-72
2021/05/09 01:43:34;;;;;;;1.20;1.10;;;13.90;98.80;;;;;;5063042;28;20650;-72
2021/05/09 01:46:00;;;;;;;1.60;1.50;;;14.00;98.90;;;;;;5070392;28;20557;-72
2021/05/09 01:48:26;;;;;;;1.73;1.35;;;13.90;98.90;;;;;;5069656;28;20194;-73
2021/05/09 01:50:52;;;;;;;1.58;1.25;;;13.90;99.00;;;;;;5070385;28;20279;-72
2021/05/09 01:53:18;;;;;;;1.35;1.05;;;13.90;99.00;;;;;;5068931;28;20201;-72
2021/05/09 01:55:46;;;;;;;1.52;1.42;;;13.90;99.10;;;;;;5069945;28;20534;-72
2021/05/09 01:58:12;;;;;;;1.38;1.27;;;13.90;99.20;;;;;;5067325;28;20201;-72
2021/05/09 02:00:38;;;;;;;1.55;1.42;;;13.90;99.20;;;;;;5050803;28;20212;-72
2021/05/09 02:03:05;;;;;;;2.08;1.40;;;13.80;99.30;;;;;;5069504;28;20190;-72
2021/05/09 02:05:31;;;;;;;1.30;1.20;;;13.80;99.30;;;;;;5070132;28;20202;-72
2021/05/09 02:07:57;;;;;;;2.25;1.42;;;13.80;99.30;;;;;;5056141;28;20294;-72
2021/05/09 02:10:23;;;;;;;1.20;1.10;;;13.80;99.40;;;;;;5069953;28;20589;-73
2021/05/09 02:12:50;;;;;;;1.33;1.23;;;13.80;99.40;;;;;;5069203;28;20634;-72
2021/05/09 02:15:17;;;;;;;1.40;1.30;;;13.80;99.60;;;;;;5069876;28;20202;-72
2021/05/09 02:17:43;;;;;;;1.52;1.30;;;13.80;99.60;;;;;;5059281;28;20202;-72
2021/05/09 02:20:10;;;;;;;1.38;1.27;;;13.80;99.70;;;;;;5069819;28;20229;-71
2021/05/09 02:22:37;;;;;;;1.73;1.40;;;13.70;99.80;;;;;;5069656;28;20201;-73
2021/05/09 02:25:04;;;;;;;1.55;1.30;;;13.70;99.90;;;;;;5069829;28;20639;-73
2021/05/09 02:27:30;;;;;;;1.92;1.73;;;13.70;99.80;;;;;;5060355;28;20274;-73
2021/05/09 02:29:57;;;;;;;1.75;1.30;;;13.70;99.90;;;;;;5067567;28;20585;-73
2021/05/09 02:32:23;;;;;;;1.50;1.40;;;13.70;99.90;;;;;;5050198;28;20206;-73
2021/05/09 02:34:50;;;;;;;1.92;1.75;;;13.70;99.90;;;;;;5050201;28;20561;-73
2021/05/09 02:37:16;;;;;;;1.45;1.30;;;13.70;99.90;;;;;;5061572;28;20194;-73
2021/05/09 02:39:42;;;;;;;1.60;1.30;;;13.70;99.90;;;;;;5069562;28;20697;-73
2021/05/09 02:42:08;;;;;;;2.20;1.40;;;13.70;99.90;;;;;;5050703;28;20214;-73
2021/05/09 02:44:35;;;;;;;1.85;1.27;;;13.70;99.90;;;;;;5052553;28;20190;-73
2021/05/09 02:47:02;;;;;;;1.38;1.27;;;13.70;99.90;;;;;;5069629;28;20550;-73
2021/05/09 02:49:28;;;;;;;1.52;1.35;;;13.60;99.90;;;;;;5069740;28;20206;-73
2021/05/09 02:51:55;;;;;;;1.25;1.15;;;13.60;99.90;;;;;;5064694;28;20267;-73
2021/05/09 02:54:21;;;;;;;1.85;1.50;;;13.60;99.90;;;;;;5070159;28;20252;-73
2021/05/09 02:56:47;;;;;;;1.65;1.48;;;13.60;99.90;;;;;;5072820;28;20236;-73
2021/05/09 02:59:13;;;;;;;1.95;1.58;;;13.60;99.90;;;;;;5063083;28;20203;-73
2021/05/09 03:01:40;;;;;;;3.97;1.38;;;13.60;99.90;;;;;;5070086;28;20206;-73
2021/05/09 03:04:07;;;;;;;1.70;1.60;;;13.60;99.90;;;;;;5072566;28;20202;-73
2021/05/09 03:06:33;;;;;;;1.70;1.60;;;13.60;99.90;;;;;;5072970;28;20240;-72
2021/05/09 03:08:59;;;;;;;2.60;1.50;;;13.60;99.90;;;;;;5058472;28;20209;-73
2021/05/09 03:11:28;;;;;;;1.30;1.20;;;13.60;99.90;;;;;;5057264;28;20194;-72
2021/05/09 03:13:54;;;;;;;1.70;1.35;;;13.50;99.90;;;;;;5072996;28;20213;-73
2021/05/09 03:16:20;;;;;;;2.05;1.30;;;13.50;99.90;;;;;;5071517;28;20201;-73
2021/05/09 03:18:47;;;;;;;1.60;1.50;;;13.50;99.90;;;;;;5072093;28;20257;-73
2021/05/09 03:21:14;;;;;;;2.50;1.20;;;13.50;99.90;;;;;;5072946;28;20194;-72
2021/05/09 03:23:40;;;;;;;1.50;1.35;;;13.50;99.90;;;;;;5071616;28;20202;-72
2021/05/09 03:26:06;;;;;;;1.60;1.50;;;13.50;99.90;;;;;;5072483;28;20546;-72
2021/05/09 03:28:33;;;;;;;1.27;1.13;;;13.50;99.90;;;;;;5072736;28;20191;-73
2021/05/09 03:30:59;;;;;;;1.58;1.48;;;13.50;99.90;;;;;;5071524;28;20641;-73
2021/05/09 03:33:25;;;;;;;1.42;1.33;;;13.50;99.90;;;;;;5072282;28;20201;-72
2021/05/09 03:35:51;;;;;;;1.30;1.20;;;13.50;99.90;;;;;;5070155;28;20190;-72
2021/05/09 03:38:18;;;;;;;1.50;1.40;;;13.50;99.90;;;;;;5072748;28;20206;-72
2021/05/09 03:40:45;;;;;;;1.60;1.30;;;13.50;99.90;;;;;;5072248;28;20233;-73
2021/05/09 03:43:11;;;;;;;1.30;1.17;;;13.50;99.90;;;;;;5060594;28;20248;-72
2021/05/09 03:45:37;;;;;;;2.33;1.17;;;13.40;99.90;;;;;;5072219;28;20194;-73
2021/05/09 03:48:04;;;;;;;2.58;1.45;;;13.40;99.90;;;;;;5057941;28;20207;-73
2021/05/09 03:50:30;;;;;;;2.00;1.60;;;13.40;99.90;;;;;;5066843;28;20194;-73
2021/05/09 03:52:57;;;;;;;2.00;1.27;;;13.40;99.90;;;;;;5064052;28;20272;-72
2021/05/09 03:55:24;;;;;;;1.77;1.38;;;13.40;99.90;;;;;;5063321;28;20198;-72
2021/05/09 03:57:50;;;;;;;1.88;1.40;;;13.40;99.90;;;;;;5071176;28;20190;-72
2021/05/09 04:00:17;;;;;;;2.28;1.50;;;13.40;99.90;;;;;;5070651;28;20649;-73
2021/05/09 04:02:44;;;;;;;1.73;1.40;;;13.40;99.90;;;;;;5071105;28;20190;-73
2021/05/09 04:05:11;;;;;;;1.45;1.20;;;13.40;99.90;;;;;;5071886;28;20194;-73
2021/05/09 04:07:37;;;;;;;1.42;1.33;;;13.30;99.90;;;;;;5059134;28;20225;-73
2021/05/09 04:10:05;;;;;;;1.70;1.40;;;13.30;99.90;;;;;;5052874;28;20209;-73
2021/05/09 04:12:32;;;;;;;1.85;1.33;;;13.30;99.90;;;;;;5061183;28;20642;-73
2021/05/09 04:14:58;;;;;;;1.40;1.27;;;13.30;99.90;;;;;;5071170;28;20217;-73
2021/05/09 04:17:24;;;;;;;1.60;1.50;;;13.30;99.90;;;;;;5071738;28;20186;-73
2021/05/09 04:19:50;;;;;;;1.95;1.60;;;13.30;99.90;;;;;;5071654;28;20233;-73
2021/05/09 04:22:17;;;;;;;2.08;1.58;;;13.30;99.90;;;;;;5058968;28;20369;-72
2021/05/09 04:24:43;;;;;;;1.52;1.30;;;13.30;99.90;;;;;;5070927;28;20194;-72
2021/05/09 04:27:09;;;;;;;1.52;1.38;;;13.30;99.90;;;;;;5059479;28;20222;-72
2021/05/09 04:29:36;;;;;;;1.58;1.40;;;13.20;99.90;;;;;;5069786;28;20193;-72
2021/05/09 04:32:03;;;;;;;2.50;1.90;;;13.20;99.90;;;;;;5068452;28;20207;-72
2021/05/09 04:34:29;;;;;;;2.00;1.80;;;13.20;99.90;;;;;;5071635;28;20202;-72
2021/05/09 04:36:55;;;;;;;2.03;1.48;;;13.20;99.90;;;;;;5071466;28;20194;-72
2021/05/09 04:39:22;;;;;;;2.00;1.80;;;13.20;99.90;;;;;;5070506;28;20394;-72
2021/05/09 04:41:48;;;;;;;1.60;1.50;;;13.20;99.90;;;;;;5053755;28;20272;-72
2021/05/09 04:44:14;;;;;;;2.60;1.75;;;13.20;99.90;;;;;;5051374;28;20567;-72
2021/05/09 04:46:42;;;;;;;2.33;1.65;;;13.20;99.90;;;;;;5056744;28;20214;-72
2021/05/09 04:49:08;;;;;;;1.55;1.45;;;13.20;99.90;;;;;;5071039;28;20205;-71
2021/05/09 04:51:34;;;;;;;1.70;1.40;;;13.20;99.90;;;;;;5064175;28;20206;-71
2021/05/09 04:54:01;;;;;;;1.50;1.30;;;13.20;99.90;;;;;;5071122;28;20554;-71
2021/05/09 04:56:27;;;;;;;1.95;1.48;;;13.20;99.90;;;;;;5069528;28;20194;-72
2021/05/09 04:58:53;;;;;;;1.65;1.55;;;13.20;99.90;;;;;;5070376;28;20198;-72
2021/05/09 05:01:19;;;;;;;1.73;1.33;;;13.20;99.90;;;;;;5069657;28;20224;-72
2021/05/09 05:03:47;;;;;;;1.40;1.30;;;13.20;99.90;;;;;;5065009;28;20256;-72
2021/05/09 05:06:15;;;;;;;1.50;1.40;;;13.20;99.90;;;;;;5070470;28;20213;-72
2021/05/09 05:08:41;;;;;;;2.65;1.60;;;13.20;99.90;;;;;;5070704;28;20194;-72
2021/05/09 05:11:07;;;;;;;1.92;1.70;;;13.20;99.90;;;;;;5069366;28;20205;-72
2021/05/09 05:13:35;;;;;;;2.20;1.73;;;13.20;99.90;;;;;;5070926;28;20194;-72
2021/05/09 05:16:02;;;;;;;2.20;1.50;;;13.20;99.90;;;;;;5058462;28;20217;-72
2021/05/09 05:18:28;;;;;;;2.45;1.70;;;13.20;99.90;;;;;;5069989;28;20248;-72
2021/05/09 05:21:01;;;;;;;3.17;2.17;;;13.20;99.90;;;;;;5069788;28;20194;-72
2021/05/09 05:23:27;;;;;;;5.03;1.50;;;13.20;99.90;;;;;;5070464;28;20206;-71
2021/05/09 05:25:54;;;;;;;1.70;1.60;;;13.20;99.90;;;;;;5061969;28;20217;-71
2021/05/09 05:28:20;;;;;;;2.20;2.00;;;13.30;99.90;;;;;;5058395;28;20202;-72
2021/05/09 05:30:47;;;;;;;2.33;1.30;;;13.40;99.90;;;;;;5068253;28;20341;-72
2021/05/09 05:33:25;;;;;;;2.03;1.90;;;13.50;99.90;;;;;;5070525;28;20213;-72
2021/05/09 05:35:51;;;;;;;1.48;1.38;;;13.60;99.90;;;;;;5069169;28;20186;-72
2021/05/09 05:38:18;;;;;;;2.15;1.65;;;13.80;99.90;;;;;;5070408;28;20241;-72
2021/05/09 05:40:45;;;;;;;2.03;1.25;;;14.00;99.90;;;;;;5064921;28;20205;-72
2021/05/09 05:43:11;;;;;;;2.00;1.80;;;14.30;99.90;;;;;;5050504;28;20217;-72
2021/05/09 05:45:38;;;;;;;1.70;1.08;;;14.60;99.90;;;;;;5054056;28;20197;-72
2021/05/09 05:48:05;;;;;;;1.45;1.35;;;14.80;99.30;;;;;;5068085;28;20224;-72
2021/05/09 05:50:31;;;;;;;1.70;1.60;;;15.00;98.80;;;;;;5069391;28;20202;-72
2021/05/09 05:52:57;;;;;;;1.60;1.50;;;15.10;98.30;;;;;;5069417;28;20206;-72
2021/05/09 05:55:25;;;;;;;3.00;1.70;;;15.20;97.80;;;;;;5058775;28;20459;-72
2021/05/09 05:57:51;;;;;;;1.75;1.58;;;15.30;97.90;;;;;;5069258;28;20796;-72
2021/05/09 06:00:18;;;;;;;1.90;1.50;;;15.40;97.70;;;;;;5054962;28;20210;-71
2021/05/09 06:02:44;;;;;;;1.80;1.50;;;15.50;97.30;;;;;;5069730;28;20689;-71
2021/05/09 06:05:11;;;;;;;2.17;1.52;;;15.50;96.60;;;;;;5053680;28;20222;-71
2021/05/09 06:07:37;;;;;;;1.65;1.25;;;15.60;96.40;;;;;;5052007;28;20233;-72
2021/05/09 06:10:05;;;;;;;1.25;1.10;;;15.60;96.50;;;;;;5069699;28;20610;-73
2021/05/09 06:12:32;;;;;;;3.47;1.30;;;15.60;96.90;;;;;;5052993;28;20198;-73
2021/05/09 06:14:58;;;;;;;1.70;1.50;;;15.60;97.30;;;;;;5064083;28;20194;-73
2021/05/09 06:17:24;;;;;;;2.10;1.90;;;15.70;97.50;;;;;;5050017;28;20191;-73
2021/05/09 06:19:50;;;;;;;2.85;1.50;;;15.70;97.40;;;;;;5049721;28;20230;-73
2021/05/09 06:22:17;;;;;;;1.40;1.20;;;15.90;97.50;;;;;;5067824;28;20561;-72
2021/05/09 06:24:43;;;;;;;1.90;1.60;;;16.00;97.40;;;;;;5068613;28;20195;-72
2021/05/09 06:27:09;;;;;;;2.05;1.38;;;16.20;96.50;;;;;;5071752;28;20229;-72
2021/05/09 06:29:36;;;;;;;2.80;1.20;;;16.40;96.40;;;;;;5073669;28;20194;-71
2021/05/09 06:32:02;;;;;;;1.50;1.20;;;16.60;95.20;;;;;;5073739;28;20194;-71
2021/05/09 06:34:28;;;;;;;1.58;1.40;;;16.80;95.30;;;;;;5060241;28;20203;-71
2021/05/09 06:36:55;;;;;;;1.52;1.42;;;17.00;94.10;;;;;;5053694;28;20198;-72
2021/05/09 06:39:26;;;;;;;1.13;1.02;;;17.20;93.90;;;;;;5070123;28;20216;-72
2021/05/09 06:41:52;;;;;;;1.23;1.00;;;17.30;92.80;;;;;;5072744;28;20178;-72
2021/05/09 06:44:19;;;;;;;3.55;1.13;;;17.40;92.70;;;;;;5072282;28;20198;-73
2021/05/09 06:46:46;;;;;;;1.70;1.60;;;17.60;92.00;;;;;;5073315;28;20225;-72
2021/05/09 06:49:14;;;;;;;1.70;1.35;;;17.70;91.90;;;;;;5072900;28;20198;-73
2021/05/09 06:51:40;;;;;;;2.38;0.90;;;17.80;92.00;;;;;;5064371;28;20216;-72
2021/05/09 06:54:07;;;;;;;2.00;1.23;;;17.90;91.50;;;;;;5062766;28;20210;-72
2021/05/09 06:56:33;;;;;;;1.80;1.27;;;18.00;91.40;;;;;;5053049;28;20206;-72
2021/05/09 06:58:59;;;;;;;1.30;1.20;;;18.10;91.60;;;;;;5066605;28;20224;-70
2021/05/09 07:01:25;;;;;;;1.88;1.50;;;18.20;90.80;;;;;;5071843;28;20202;-70
2021/05/09 07:03:52;;;;;;;2.00;1.10;;;18.40;90.50;;;;;;5072908;28;20198;-71
2021/05/09 07:06:19;;;;;;;1.40;1.10;;;18.50;90.20;;;;;;5072802;28;20240;-72
2021/05/09 07:08:45;;;;;;;1.60;1.20;;;18.60;90.00;;;;;;5054798;28;20195;-72
2021/05/09 07:11:11;;;;;;;1.27;1.00;;;18.60;89.40;;;;;;5053293;28;20504;-71
2021/05/09 07:13:37;;;;;;;1.60;1.30;;;18.70;89.70;;;;;;5054192;28;20260;-71
2021/05/09 07:16:04;;;;;;;1.10;0.90;;;18.80;89.40;;;;;;5058814;28;20570;-73
2021/05/09 07:18:31;;;;;;;1.40;1.08;;;18.90;89.20;;;;;;5073462;28;20738;-73
2021/05/09 07:21:01;;;;;;;1.83;1.15;;;18.90;89.30;;;;;;5073262;28;20229;-73
2021/05/09 07:23:28;;;;;;;1.30;1.17;;;19.00;88.50;;;;;;5070589;28;20210;-72
2021/05/09 07:25:55;;;;;;;1.73;1.30;;;19.00;89.30;;;;;;5053333;28;20202;-71
2021/05/09 07:28:21;;;;;;;3.65;1.30;;;19.00;89.00;;;;;;5062824;28;20222;-72
2021/05/09 07:30:49;;;;;;;1.13;1.00;;;19.10;89.30;;;;;;5073417;28;20197;-72
2021/05/09 07:33:16;;;;;;;1.70;1.40;;;19.20;88.50;;;;;;5063435;28;20213;-71
2021/05/09 07:35:43;;;;;;;1.48;1.20;;;19.30;88.20;;;;;;5053662;28;20217;-71
2021/05/09 07:38:12;;;;;;;1.20;0.90;;;19.40;86.80;;;;;;5052649;28;20209;-71
2021/05/09 07:40:39;;;;;;;1.60;1.50;;;19.50;86.30;;;;;;5053586;28;20210;-71
2021/05/09 07:43:07;;;;;;;2.25;1.02;;;19.50;86.00;;;;;;5053311;28;20206;-72
2021/05/09 07:45:34;;;;;;;1.77;1.20;;;19.60;85.70;;;;;;5063875;28;20197;-72
2021/05/09 07:48:01;;;;;;;3.03;1.52;;;19.70;85.20;;;;;;5072377;28;20221;-72
2021/05/09 07:50:28;;;;;;;2.28;1.00;;;19.70;85.30;;;;;;5057085;28;20202;-72
2021/05/09 07:52:58;;;;;;;1.50;0.90;;;19.80;84.70;;;;;;5052881;28;20289;-73
2021/05/09 07:55:25;;;;;;;1.48;1.00;;;19.80;84.60;;;;;;5071779;28;20205;-73
2021/05/09 07:57:51;;;;;;;1.20;1.10;;;19.80;84.50;;;;;;5072686;28;20190;-73
2021/05/09 08:00:19;;;;;;;1.90;1.10;;;19.90;85.00;;;;;;5071484;28;20259;-73
2021/05/09 08:02:48;;;;;;;1.55;1.30;;;19.90;84.40;;;;;;5073071;28;20205;-72
2021/05/09 08:05:16;;;;;;;3.67;1.08;;;19.90;84.60;;;;;;5072976;28;20202;-73
2021/05/09 08:07:49;;;;;;;2.20;1.10;;;19.80;84.60;;;;;;5071484;28;20664;-72
2021/05/09 08:10:15;;;;;;;1.35;1.05;;;19.70;84.80;;;;;;5052993;28;20198;-73
2021/05/09 08:12:43;;;;;;;1.65;1.55;;;19.80;85.30;;;;;;5053495;28;20202;-73
2021/05/09 08:15:10;;;;;;;1.55;1.40;;;19.90;86.00;;;;;;5072629;28;20802;-73
2021/05/09 08:17:36;;;;;;;1.30;1.20;;;19.90;85.00;;;;;;5071689;28;20194;-73
2021/05/09 08:20:03;;;;;;;1.60;1.30;;;20.10;84.80;;;;;;5072332;28;20713;-72
2021/05/09 08:22:29;;;;;;;1.15;0.93;;;20.20;84.10;;;;;;5072373;28;21640;-73
2021/05/09 08:24:55;;;;;;;1.40;1.00;;;20.30;84.60;;;;;;5066456;28;20202;-72
2021/05/09 08:27:21;;;;;;;2.20;1.10;;;20.40;83.50;;;;;;5071714;28;20587;-73
2021/05/09 08:29:48;;;;;;;1.40;1.20;;;20.40;83.10;;;;;;5059063;28;20202;-72
2021/05/09 08:32:14;;;;;;;1.35;1.00;;;20.50;83.00;;;;;;5072402;28;20295;-73
2021/05/09 08:34:41;;;;;;;1.00;0.80;;;20.60;82.80;;;;;;5071569;28;20190;-73
2021/05/09 08:37:07;;;;;;;2.17;1.00;;;20.60;82.40;;;;;;5059155;28;20589;-73
2021/05/09 08:39:33;;;;;;;1.30;1.05;;;20.70;85.30;;;;;;5060684;28;20194;-72
2021/05/09 08:41:59;;;;;;;1.35;1.08;;;20.70;86.50;;;;;;5072314;28;20429;-73
2021/05/09 08:44:25;;;;;;;2.05;1.15;;;20.70;82.50;;;;;;5072032;28;20195;-73
2021/05/09 08:46:53;;;;;;;1.60;1.38;;;20.70;82.60;;;;;;5067941;28;20221;-73
2021/05/09 08:49:20;;;;;;;1.30;0.95;;;20.80;82.50;;;;;;5071891;28;20205;-72
2021/05/09 08:51:46;;;;;;;1.60;0.90;;;20.80;81.90;;;;;;5071689;28;20276;-73
2021/05/09 08:54:12;;;;;;;2.75;0.98;;;20.90;82.00;;;;;;5060640;28;20218;-73
2021/05/09 08:56:39;;;;;;;1.30;1.00;;;20.90;82.20;;;;;;5052140;28;20202;-73
2021/05/09 08:59:06;;;;;;;2.10;1.30;;;20.90;81.80;;;;;;5065496;28;20194;-72
2021/05/09 09:01:34;;;;;;;1.40;1.30;;;21.00;81.60;;;;;;5071613;28;20218;-73
2021/05/09 09:04:01;;;;;;;2.10;1.05;;;21.00;81.50;;;;;;5071664;28;20605;-72
2021/05/09 09:06:41;;;;;;;1.13;0.90;;;21.00;81.80;;;;;;5064857;28;20222;-69
2021/05/09 09:09:17;;;;;;;1.50;1.00;;;21.00;81.80;;;;;;5051630;28;20229;-70
2021/05/09 09:11:49;;;;;;;1.20;1.00;;;21.00;81.80;;;;;;5051785;28;20210;-73
2021/05/09 09:14:16;;;;;;;1.20;1.10;;;21.00;82.20;;;;;;5067658;28;20511;-71
2021/05/09 09:16:42;;;;;;;1.80;0.90;;;21.00;82.30;;;;;;5062927;28;20189;-71
2021/05/09 09:19:11;;;;;;;2.20;1.15;;;21.00;82.50;;;;;;5064405;28;20237;-76
2021/05/09 09:21:37;;;;;;;1.50;1.40;;;21.00;83.40;;;;;;5053014;28;20229;-71
2021/05/09 09:24:06;;;;;;;2.05;1.20;;;21.10;83.50;;;;;;5067813;28;20239;-71
2021/05/09 09:26:38;;;;;;;1.70;1.15;;;21.00;84.30;;;;;;5050194;28;20257;-70
2021/05/09 09:29:23;;;;;;;3.08;1.60;;;21.00;84.00;;;;;;5050752;28;20191;-71
2021/05/09 09:31:53;;;;;;;1.52;1.27;;;21.00;84.10;;;;;;5051643;28;20206;-72
2021/05/09 09:34:21;;;;;;;1.45;1.27;;;21.00;84.80;;;;;;5063963;28;20221;-72
2021/05/09 09:36:48;;;;;;;2.88;1.30;;;21.00;85.70;;;;;;5060884;28;20283;-72
2021/05/09 09:39:14;;;;;;;2.55;1.30;;;20.90;85.20;;;;;;5064213;28;20190;-73
2021/05/09 09:41:45;;;;;;;1.23;1.05;;;20.90;85.20;;;;;;5055014;28;20298;-73
2021/05/09 09:44:13;;;;;;;2.47;1.10;;;20.80;85.70;;;;;;5061510;28;20650;-72
2021/05/09 09:46:41;;;;;;;2.00;1.25;;;20.80;86.00;;;;;;5065383;28;20222;-72
2021/05/09 09:49:19;;;;;;;1.48;1.00;;;;;;;;;;5070126;28;20213;-71
2021/05/09 09:51:51;;;;;;;2.47;1.50;;;20.70;86.10;;;;;;5050025;28;20289;-71
2021/05/09 09:54:33;;;;;;;1.20;1.10;;;20.80;87.00;;;;;;5060888;28;20198;-70
2021/05/09 09:57:00;;;;;;;1.50;1.40;;;20.80;87.00;;;;;;5050123;28;20183;-70
2021/05/09 09:59:27;;;;;;;1.95;1.30;;;20.90;87.30;;;;;;5069610;28;20213;-70
2021/05/09 10:01:54;;;;;;;1.83;1.30;;;20.90;87.60;;;;;;5071641;28;20197;-71
2021/05/09 10:04:20;;;;;;;3.45;1.20;;;21.00;88.90;;;;;;5073295;28;20206;-71
2021/05/09 10:06:46;;;;;;;4.35;1.42;;;21.00;87.50;;;;;;5074134;28;20339;-71
2021/05/09 10:09:13;;;;;;;1.40;1.20;;;21.00;88.70;;;;;;5068192;28;20205;-70
2021/05/09 10:11:40;;;;;;;1.80;1.40;;;21.00;89.40;;;;;;5074003;28;20205;-72
2021/05/09 10:14:07;;;;;;;3.15;1.20;;;21.00;88.30;;;;;;5074162;28;20198;-70
2021/05/09 10:16:37;;;;;;;2.03;1.40;;;21.00;88.70;;;;;;5074498;28;20703;-72
2021/05/09 10:19:05;;;;;;;2.15;1.55;;;21.00;88.90;;;;;;5066805;28;20230;-72
2021/05/09 10:21:33;;;;;;;1.73;1.52;;;21.00;89.70;;;;;;5074095;28;20229;-72
2021/05/09 10:24:08;;;;;;;2.78;1.90;;;21.00;89.10;;;;;;5074180;28;20205;-72
2021/05/09 10:26:44;;;;;;;2.05;1.85;;;21.00;90.30;;;;;;5073751;28;20549;-71
2021/05/09 10:29:58;;;;;;;1.40;1.30;;;21.00;89.90;;;;;;5059938;28;20204;-70
2021/05/09 10:32:50;;;;;;;1.85;1.35;;;21.00;90.60;;;;;;5053553;28;20203;-70
2021/05/09 10:35:32;;;;;;;2.28;1.50;;;21.10;90.70;;;;;;5053644;28;20765;-71
2021/05/09 10:38:09;;;;;;;1.40;1.30;;;21.10;91.10;;;;;;5060620;28;20182;-71
2021/05/09 10:40:37;;;;;;;1.60;1.42;;;21.10;91.10;;;;;;5071646;28;20202;-72
2021/05/09 10:43:38;;;;;;;1.98;1.88;;;21.20;90.90;;;;;;5073755;28;20213;-72
2021/05/09 10:46:06;;;;;;;8.35;1.80;;;21.20;91.40;;;;;;5073123;28;20210;-71
2021/05/09 10:48:34;;;;;;;3.47;1.45;;;21.20;90.70;;;;;;5065359;28;20223;-70
2021/05/09 10:51:27;;;;;;;1.75;1.63;;;21.20;90.80;;;;;;5073063;28;20203;-72
2021/05/09 10:53:54;;;;;;;1.55;1.42;;;21.20;91.30;;;;;;5072464;28;20192;-71
2021/05/09 10:56:34;;;;;;;1.50;1.40;;;21.30;91.90;;;;;;5063653;28;20221;-72
2021/05/09 10:59:01;;;;;;;2.85;1.35;;;21.30;92.10;;;;;;5067440;28;20222;-71
2021/05/09 11:01:29;;;;;;;1.80;1.65;;;21.30;91.30;;;;;;5072761;28;20201;-71
2021/05/09 11:03:57;;;;;;;3.38;1.40;;;21.40;91.70;;;;;;5071460;28;20191;-71
2021/05/09 11:06:40;;;;;;;2.35;1.80;;;21.40;91.40;;;;;;5073256;28;20538;-71
2021/05/09 11:09:08;;;;;;;3.47;1.77;;;21.40;91.30;;;;;;5071065;28;20228;-70
2021/05/09 11:12:01;;;;;;;1.48;1.23;;;21.50;91.40;;;;;;5071082;28;20252;-70
2021/05/09 11:14:30;;;;;;;2.15;1.50;;;21.50;91.50;;;;;;5053191;28;20203;-70
2021/05/09 11:17:01;;;;;;;2.83;1.70;;;21.60;91.20;;;;;;5047906;28;20226;-71
2021/05/09 11:19:35;;;;;;;1.80;1.70;;;21.60;91.60;;;;;;5060604;28;20229;-71
2021/05/09 11:22:03;;;;;;;2.40;1.27;;;21.60;91.70;;;;;;5064310;28;20189;-71
2021/05/09 11:24:31;;;;;;;1.40;1.20;;;21.70;91.20;;;;;;5072512;28;20541;-71
2021/05/09 11:26:58;;;;;;;1.92;1.40;;;21.70;91.10;;;;;;5056720;28;20214;-71
2021/05/09 11:29:26;;;;;;;2.40;1.40;;;21.70;91.30;;;;;;5052790;28;20650;-70
2021/05/09 11:31:54;;;;;;;2.83;1.65;;;21.80;91.10;;;;;;5072400;28;20233;-70
2021/05/09 11:34:22;;;;;;;2.85;2.65;;;21.80;91.30;;;;;;5072019;28;20787;-70
2021/05/09 11:36:50;;;;;;;4.53;1.80;;;21.80;91.20;;;;;;5072355;28;20632;-69
2021/05/09 11:39:18;;;;;;;2.30;1.42;;;21.80;91.10;;;;;;5071264;28;20202;-70
2021/05/09 11:41:52;;;;;;;1.58;1.48;;;21.80;91.20;;;;;;5071487;28;20202;-69
2021/05/09 11:44:19;;;;;;;2.72;1.65;;;21.80;91.00;;;;;;5070364;28;20233;-70
2021/05/09 11:46:45;;;;;;;2.22;1.70;;;21.90;90.90;;;;;;5066025;28;20214;-70
2021/05/09 11:49:17;;;;;;;2.75;1.75;;;21.90;91.20;;;;;;5071971;28;20242;-70
2021/05/09 11:51:50;;;;;;;2.13;1.55;;;21.90;91.20;;;;;;5070844;28;20202;-71
2021/05/09 11:54:17;;;;;;;2.40;1.70;;;21.90;91.00;;;;;;5072622;28;20202;-71
2021/05/09 11:56:54;;;;;;;7.03;1.52;;;22.00;91.00;;;;;;5072316;28;20202;-70
2021/05/09 11:59:38;;;;;;;2.65;1.80;;;22.00;91.00;;;;;;5070816;28;20221;-70
2021/05/09 12:02:35;;;;;;;2.33;1.60;;;22.00;91.00;;;;;;5072420;28;20793;-70
2021/05/09 12:05:05;;;;;;;1.55;1.45;;;22.00;90.50;;;;;;5067495;28;20344;-70
2021/05/09 12:07:34;;;;;;;3.17;1.67;;;22.00;90.40;;;;;;5067227;28;20540;-70
2021/05/09 12:10:04;;;;;;;4.80;1.52;;;22.10;90.70;;;;;;5052015;28;20201;-70
2021/05/09 12:12:31;;;;;;;1.90;1.75;;;22.10;90.90;;;;;;5063200;28;20205;-70
2021/05/09 12:15:09;;;;;;;4.17;1.70;;;22.10;90.50;;;;;;5071769;28;20182;-70
2021/05/09 12:17:44;;;;;;;1.50;1.27;;;22.20;90.70;;;;;;5070049;28;20457;-71
2021/05/09 12:20:24;;;;;;;1.60;1.43;;;22.20;90.60;;;;;;5071736;28;20633;-72
2021/05/09 12:22:50;;;;;;;2.90;1.80;;;22.20;90.30;;;;;;5070983;28;20914;-70
2021/05/09 12:25:31;;;;;;;2.78;1.88;;;22.30;90.20;;;;;;5071330;28;20205;-70
2021/05/09 12:28:08;;;;;;;2.63;1.80;;;22.30;90.00;;;;;;5058280;28;20241;-72
2021/05/09 12:30:34;;;;;;;1.50;1.40;;;22.30;90.10;;;;;;5069616;28;20455;-71
2021/05/09 12:33:00;;;;;;;2.33;1.87;;;22.40;90.00;;;;;;5071682;28;20225;-72
2021/05/09 12:35:28;;;;;;;2.07;1.87;;;22.40;89.90;;;;;;5070541;28;20448;-70
2021/05/09 12:37:59;;;;;;;4.03;1.87;;;23.10;88.20;;;;;;5053370;28;20467;-72
2021/05/09 12:40:27;;;;;;;2.50;2.13;;;24.00;82.70;;;;;;5059215;28;20444;-72
2021/05/09 12:42:55;;;;;;;1.90;1.77;;;24.40;79.40;;;;;;5071455;28;20443;-71
2021/05/09 12:45:30;;;;;;;3.07;2.13;;;24.60;78.90;;;;;;5059986;28;20467;-73
2021/05/09 12:48:14;;;;;;;2.33;1.60;;;24.60;78.90;;;;;;5068014;28;21332;-73
2021/05/09 12:50:55;;;;;;;2.30;2.00;;;24.40;79.50;;;;;;5064212;28;20539;-71
2021/05/09 12:53:45;;;;;;;2.90;1.70;;;24.20;80.00;;;;;;5070841;28;20452;-72